createdAt,value
2018-07-03T00:01:50.795Z,15.03
2018-07-03T00:04:19.096Z,15.10
2018-07-03T00:06:47.663Z,15.10
2018-07-03T00:09:15.974Z,15.06
2018-07-03T00:11:44.253Z,14.92
2018-07-03T00:14:12.501Z,14.84
2018-07-03T00:16:46.166Z,14.75
2018-07-03T00:19:14.412Z,14.70
2018-07-03T00:21:42.656Z,14.66
2018-07-03T00:24:10.991Z,14.55
2018-07-03T00:26:39.356Z,14.53
2018-07-03T00:29:07.636Z,14.47
2018-07-03T00:31:35.915Z,14.42
2018-07-03T00:34:04.187Z,14.43
2018-07-03T00:36:32.448Z,14.39
2018-07-03T00:39:00.711Z,14.34
2018-07-03T00:41:29.063Z,14.32
2018-07-03T00:43:57.325Z,14.35
2018-07-03T00:46:25.611Z,14.36
2018-07-03T00:48:53.881Z,14.48
2018-07-03T00:51:22.135Z,14.51
2018-07-03T00:53:50.534Z,14.44
2018-07-03T00:56:18.793Z,14.37
2018-07-03T00:58:47.044Z,14.37
2018-07-03T01:01:15.309Z,14.31
2018-07-03T01:03:43.557Z,14.36
2018-07-03T01:06:11.816Z,14.29
2018-07-03T01:08:40.149Z,14.15
2018-07-03T01:11:08.472Z,14.06
2018-07-03T01:13:36.720Z,14.01
2018-07-03T01:16:05.024Z,13.90
2018-07-03T01:18:33.276Z,13.92
2018-07-03T01:21:01.528Z,13.90
2018-07-03T01:23:29.780Z,13.97
2018-07-03T01:25:58.044Z,13.95
2018-07-03T01:28:26.288Z,13.88
2018-07-03T01:30:54.560Z,13.84
2018-07-03T01:33:22.843Z,13.74
2018-07-03T01:35:51.106Z,13.69
2018-07-03T01:38:19.396Z,13.64
2018-07-03T01:40:47.736Z,13.60
2018-07-03T01:43:15.993Z,13.54
2018-07-03T01:45:44.265Z,13.47
2018-07-03T01:48:12.559Z,13.58
2018-07-03T01:50:41.113Z,13.56
2018-07-03T01:53:09.389Z,13.44
2018-07-03T01:55:37.642Z,13.42
2018-07-03T01:58:05.917Z,13.39
2018-07-03T02:00:34.181Z,13.30
2018-07-03T02:03:02.425Z,13.30
2018-07-03T02:05:31.140Z,13.32
2018-07-03T02:07:59.417Z,13.24
2018-07-03T02:10:27.673Z,13.38
2018-07-03T02:12:55.908Z,13.16
2018-07-03T02:15:24.486Z,13.14
2018-07-03T02:17:52.735Z,12.90
2018-07-03T02:20:21.008Z,12.89
2018-07-03T02:22:49.292Z,12.81
2018-07-03T02:25:17.576Z,12.68
2018-07-03T02:27:45.856Z,12.55
2018-07-03T02:30:14.258Z,12.52
2018-07-03T02:32:42.506Z,12.59
2018-07-03T02:35:10.766Z,12.59
2018-07-03T02:37:39.028Z,12.48
2018-07-03T02:40:07.852Z,12.39
2018-07-03T02:42:36.140Z,12.43
2018-07-03T02:45:04.965Z,12.43
2018-07-03T02:47:33.199Z,12.38
2018-07-03T02:50:01.458Z,12.37
2018-07-03T02:52:29.743Z,12.34
2018-07-03T02:54:58.010Z,12.28
2018-07-03T02:57:26.263Z,11.99
2018-07-03T02:59:54.533Z,11.88
2018-07-03T03:02:23.491Z,11.97
2018-07-03T03:04:51.957Z,12.04
2018-07-03T03:07:20.237Z,12.01
2018-07-03T03:09:48.521Z,11.99
2018-07-03T03:12:16.865Z,11.98
2018-07-03T03:14:45.140Z,11.88
2018-07-03T03:17:13.389Z,11.72
2018-07-03T03:19:41.641Z,11.71
2018-07-03T03:22:09.980Z,11.70
2018-07-03T03:24:38.245Z,11.82
2018-07-03T03:27:06.611Z,11.65
2018-07-03T03:29:34.888Z,11.53
2018-07-03T03:32:03.133Z,11.59
2018-07-03T03:34:31.416Z,11.67
2018-07-03T03:36:59.704Z,11.77
2018-07-03T03:39:27.966Z,11.86
2018-07-03T03:41:56.244Z,11.81
2018-07-03T03:44:24.508Z,11.95
2018-07-03T03:46:52.837Z,12.08
2018-07-03T03:49:21.099Z,12.16
2018-07-03T03:51:49.372Z,12.24
2018-07-03T03:54:17.604Z,12.35
2018-07-03T03:56:45.869Z,12.38
2018-07-03T03:59:14.145Z,12.36
2018-07-03T04:01:42.531Z,12.47
2018-07-03T04:04:10.799Z,12.44
2018-07-03T04:06:39.113Z,12.44
2018-07-03T04:09:08.981Z,12.61
2018-07-03T04:11:37.251Z,12.60
2018-07-03T04:14:05.615Z,12.68
2018-07-03T04:16:33.953Z,12.64
2018-07-03T04:19:02.225Z,12.74
2018-07-03T04:21:30.873Z,12.91
2018-07-03T04:23:59.154Z,13.08
2018-07-03T04:26:27.405Z,13.22
2018-07-03T04:28:55.687Z,13.37
2018-07-03T04:31:23.961Z,13.47
2018-07-03T04:33:52.216Z,13.51
2018-07-03T04:36:20.492Z,13.61
2018-07-03T04:38:48.859Z,13.77
2018-07-03T04:41:17.145Z,13.96
2018-07-03T04:43:45.416Z,14.16
2018-07-03T04:46:13.656Z,14.14
2018-07-03T04:48:41.936Z,14.29
2018-07-03T04:51:10.212Z,14.44
2018-07-03T04:53:38.518Z,14.45
2018-07-03T04:56:06.794Z,14.39
2018-07-03T04:58:35.066Z,14.42
2018-07-03T05:01:03.341Z,14.59
2018-07-03T05:03:31.595Z,14.81
2018-07-03T05:05:59.847Z,14.91
2018-07-03T05:08:28.106Z,15.08
2018-07-03T05:10:56.423Z,15.25
2018-07-03T05:13:24.684Z,15.37
2018-07-03T05:15:52.937Z,15.52
2018-07-03T05:18:21.189Z,15.66
2018-07-03T05:20:49.455Z,15.71
2018-07-03T05:23:17.733Z,15.88
2018-07-03T05:25:46.007Z,16.03
2018-07-03T05:28:14.281Z,16.15
2018-07-03T05:30:42.571Z,16.27
2018-07-03T05:33:10.852Z,16.21
2018-07-03T05:35:39.117Z,16.55
2018-07-03T05:38:07.597Z,16.87
2018-07-03T05:40:35.940Z,16.98
2018-07-03T05:43:04.277Z,16.99
2018-07-03T05:45:32.519Z,17.08
2018-07-03T05:48:00.785Z,17.23
2018-07-03T05:50:29.340Z,17.43
2018-07-03T05:52:57.585Z,17.46
2018-07-03T05:55:25.842Z,17.59
2018-07-03T05:57:54.106Z,17.49
2018-07-03T06:00:22.348Z,17.52
2018-07-03T06:02:50.601Z,17.62
2018-07-03T06:05:18.852Z,17.69
2018-07-03T06:07:47.104Z,17.90
2018-07-03T06:10:15.412Z,17.87
2018-07-03T06:12:43.664Z,18.19
2018-07-03T06:15:11.948Z,18.51
2018-07-03T06:17:40.301Z,18.59
2018-07-03T06:20:08.845Z,18.46
2018-07-03T06:22:37.308Z,18.84
2018-07-03T06:25:05.985Z,19.04
2018-07-03T06:27:34.240Z,18.93
2018-07-03T06:30:02.533Z,18.99
2018-07-03T06:32:30.793Z,19.06
2018-07-03T06:34:59.595Z,19.28
2018-07-03T06:37:27.919Z,19.25
2018-07-03T06:39:56.147Z,19.43
2018-07-03T06:42:24.479Z,19.65
2018-07-03T06:44:52.824Z,19.69
2018-07-03T06:47:21.074Z,19.77
2018-07-03T06:49:49.346Z,20.01
2018-07-03T06:52:17.613Z,20.25
2018-07-03T06:54:46.524Z,20.41
2018-07-03T06:57:15.312Z,20.43
2018-07-03T06:59:43.804Z,20.73
2018-07-03T07:02:12.060Z,20.76
2018-07-03T07:04:40.336Z,20.77
2018-07-03T07:07:08.636Z,20.81
2018-07-03T07:09:37.115Z,21.01
2018-07-03T07:12:05.390Z,20.99
2018-07-03T07:14:33.656Z,21.10
2018-07-03T07:17:02.059Z,21.24
2018-07-03T07:19:30.455Z,21.26
2018-07-03T07:21:58.710Z,21.41
2018-07-03T07:24:26.969Z,21.61
2018-07-03T07:26:55.265Z,21.95
2018-07-03T07:29:23.516Z,22.08
2018-07-03T07:31:51.759Z,22.34
2018-07-03T07:34:20.085Z,22.28
2018-07-03T07:36:48.444Z,22.31
2018-07-03T07:39:17.156Z,22.47
2018-07-03T07:41:45.521Z,22.79
2018-07-03T07:44:13.855Z,22.98
2018-07-03T07:46:42.176Z,23.00
2018-07-03T07:49:10.543Z,23.22
2018-07-03T07:51:38.825Z,23.58
2018-07-03T07:54:07.089Z,23.67
2018-07-03T07:56:35.351Z,23.78
2018-07-03T07:59:03.699Z,23.98
2018-07-03T08:01:32.120Z,24.05
2018-07-03T08:04:00.554Z,24.04
2018-07-03T08:06:28.880Z,23.76
2018-07-03T08:08:57.134Z,23.94
2018-07-03T08:11:25.752Z,24.11
2018-07-03T08:13:54.065Z,24.32
2018-07-03T08:16:22.400Z,24.44
2018-07-03T08:18:50.699Z,24.46
2018-07-03T08:21:18.960Z,24.70
2018-07-03T08:23:47.231Z,24.80
2018-07-03T08:26:15.690Z,24.93
2018-07-03T08:28:43.985Z,24.73
2018-07-03T08:31:12.273Z,24.57
2018-07-03T08:33:40.563Z,24.50
2018-07-03T08:36:08.930Z,24.46
2018-07-03T08:38:37.197Z,24.56
2018-07-03T08:41:05.837Z,24.36
2018-07-03T08:43:34.258Z,24.45
2018-07-03T08:46:02.521Z,24.88
2018-07-03T08:48:31.144Z,24.71
2018-07-03T08:50:59.527Z,25.09
2018-07-03T08:53:28.037Z,25.39
2018-07-03T08:55:56.368Z,25.33
2018-07-03T08:58:24.733Z,25.36
2018-07-03T09:00:53.165Z,24.89
2018-07-03T09:03:21.400Z,25.05
2018-07-03T09:05:49.680Z,25.39
2018-07-03T09:08:17.944Z,25.64
2018-07-03T09:10:46.200Z,25.37
2018-07-03T09:13:14.497Z,25.22
2018-07-03T09:15:42.772Z,25.16
2018-07-03T09:18:11.752Z,25.44
2018-07-03T09:20:40.040Z,25.43
2018-07-03T09:23:08.325Z,25.25
2018-07-03T09:25:36.824Z,25.38
2018-07-03T09:28:05.309Z,25.82
2018-07-03T09:30:33.599Z,26.20
2018-07-03T09:33:01.946Z,26.21
2018-07-03T09:35:30.209Z,25.89
2018-07-03T09:37:58.493Z,25.72
2018-07-03T09:40:26.746Z,25.62
2018-07-03T09:42:55.039Z,25.57
2018-07-03T09:45:23.389Z,25.54
2018-07-03T09:47:51.648Z,25.50
2018-07-03T09:50:20.077Z,25.31
2018-07-03T09:52:48.365Z,25.72
2018-07-03T09:55:16.628Z,25.86
2018-07-03T09:57:44.926Z,26.42
2018-07-03T10:00:13.625Z,26.61
2018-07-03T10:02:42.617Z,26.71
2018-07-03T10:05:10.856Z,27.01
2018-07-03T10:07:39.138Z,26.93
2018-07-03T10:10:07.398Z,27.14
2018-07-03T10:12:35.692Z,26.99
2018-07-03T10:15:04.612Z,26.97
2018-07-03T10:17:32.874Z,27.52
2018-07-03T10:20:01.866Z,27.63
2018-07-03T10:22:30.124Z,27.63
2018-07-03T10:24:58.376Z,27.09
2018-07-03T10:27:26.649Z,26.71
2018-07-03T10:29:54.956Z,27.05
2018-07-03T10:32:23.578Z,26.47
2018-07-03T10:34:51.875Z,26.83
2018-07-03T10:37:20.150Z,26.91
2018-07-03T10:39:48.481Z,27.32
2018-07-03T10:42:17.529Z,27.21
2018-07-03T10:44:45.839Z,27.37
2018-07-03T10:47:14.127Z,27.37
2018-07-03T10:49:42.547Z,28.26
2018-07-03T10:52:10.873Z,28.24
2018-07-03T10:54:39.365Z,27.51
2018-07-03T10:57:08.571Z,27.86
2018-07-03T10:59:36.986Z,28.60
2018-07-03T11:02:05.324Z,29.46
2018-07-03T11:04:33.592Z,29.74
2018-07-03T11:07:01.841Z,30.23
2018-07-03T11:09:30.149Z,29.67
2018-07-03T11:11:58.628Z,29.88
2018-07-03T11:14:26.897Z,30.16
2018-07-03T11:16:55.189Z,31.08
2018-07-03T11:19:23.644Z,31.47
2018-07-03T11:21:51.915Z,32.52
2018-07-03T11:24:20.246Z,33.75
2018-07-03T11:26:48.585Z,34.87
2018-07-03T11:29:16.860Z,34.86
2018-07-03T11:31:45.166Z,38.62
2018-07-03T11:34:13.626Z,41.30
2018-07-03T11:36:42.012Z,43.04
2018-07-03T11:39:10.640Z,41.84
2018-07-03T11:41:38.960Z,42.02
2018-07-03T11:44:07.236Z,43.74
2018-07-03T11:46:35.538Z,44.13
2018-07-03T11:49:03.814Z,46.78
2018-07-03T11:51:32.271Z,45.60
2018-07-03T11:54:00.561Z,42.50
2018-07-03T11:56:28.825Z,45.89
2018-07-03T11:58:57.095Z,45.25
2018-07-03T12:01:25.733Z,46.99
2018-07-03T12:03:54.379Z,47.59
2018-07-03T12:06:22.631Z,46.42
2018-07-03T12:08:50.936Z,46.04
2018-07-03T12:11:19.234Z,48.35
2018-07-03T12:13:47.576Z,47.38
2018-07-03T12:16:16.164Z,46.30
2018-07-03T12:18:49.784Z,45.32
2018-07-03T12:21:18.165Z,48.95
2018-07-03T12:23:46.520Z,50.48
2018-07-03T12:26:14.864Z,50.34
2018-07-03T12:28:43.193Z,49.59
2018-07-03T12:31:11.608Z,48.82
2018-07-03T12:33:40.053Z,42.33
2018-07-03T12:36:09.712Z,47.81
2018-07-03T12:38:38.064Z,53.18
2018-07-03T12:41:06.492Z,52.85
2018-07-03T12:43:34.758Z,51.28
2018-07-03T12:46:03.088Z,49.47
2018-07-03T12:48:31.474Z,48.49
2018-07-03T12:50:59.761Z,49.34
2018-07-03T12:53:27.999Z,47.18
2018-07-03T12:55:56.512Z,43.95
2018-07-03T12:58:24.861Z,43.60
2018-07-03T13:00:53.225Z,47.06
2018-07-03T13:03:21.907Z,49.45
2018-07-03T13:05:50.917Z,50.39
2018-07-03T13:08:19.201Z,54.07
2018-07-03T13:10:47.606Z,53.38
2018-07-03T13:13:16.249Z,51.87
2018-07-03T13:15:44.944Z,51.98
2018-07-03T13:18:18.560Z,52.02
2018-07-03T13:20:46.909Z,48.04
2018-07-03T13:23:15.284Z,50.96
2018-07-03T13:25:43.600Z,50.95
2018-07-03T13:28:11.957Z,50.05
2018-07-03T13:30:40.320Z,47.67
2018-07-03T13:33:08.624Z,49.33
2018-07-03T13:35:37.286Z,50.67
2018-07-03T13:38:06.181Z,51.09
2018-07-03T13:40:34.696Z,53.80
2018-07-03T13:43:03.031Z,48.10
2018-07-03T13:45:31.424Z,53.40
2018-07-03T13:47:59.920Z,52.20
2018-07-03T13:50:28.318Z,51.10
2018-07-03T13:52:56.659Z,53.92
2018-07-03T13:55:24.908Z,50.97
2018-07-03T13:57:53.201Z,50.54
2018-07-03T14:00:21.721Z,51.51
2018-07-03T14:02:50.087Z,53.00
2018-07-03T14:05:18.453Z,49.18
2018-07-03T14:07:47.237Z,50.19
2018-07-03T14:10:15.538Z,52.72
2018-07-03T14:12:43.889Z,52.00
2018-07-03T14:15:12.140Z,45.31
2018-07-03T14:17:40.436Z,45.89
2018-07-03T14:20:08.712Z,45.07
2018-07-03T14:22:36.985Z,42.51
2018-07-03T14:25:05.372Z,43.23
2018-07-03T14:27:33.697Z,43.69
2018-07-03T14:30:02.121Z,45.63
2018-07-03T14:32:30.381Z,43.92
2018-07-03T14:34:58.632Z,43.95
2018-07-03T14:37:26.960Z,42.83
2018-07-03T14:39:55.417Z,42.21
2018-07-03T14:42:23.671Z,42.16
2018-07-03T14:44:51.980Z,41.88
2018-07-03T14:47:20.292Z,41.02
2018-07-03T14:49:48.658Z,40.46
2018-07-03T14:52:17.022Z,39.97
2018-07-03T14:54:45.338Z,43.51
2018-07-03T14:57:13.620Z,43.99
2018-07-03T14:59:42.055Z,44.21
2018-07-03T15:02:10.412Z,41.41
2018-07-03T15:04:38.715Z,39.96
2018-07-03T15:07:07.106Z,36.94
2018-07-03T15:09:35.505Z,37.59
2018-07-03T15:12:04.125Z,35.88
2018-07-03T15:14:33.035Z,35.60
2018-07-03T15:17:01.335Z,34.88
2018-07-03T15:19:35.014Z,36.18
2018-07-03T15:22:03.313Z,38.53
2018-07-03T15:24:31.617Z,36.95
2018-07-03T15:26:59.881Z,35.61
2018-07-03T15:29:28.228Z,35.52
2018-07-03T15:31:56.493Z,35.06
2018-07-03T15:34:24.776Z,34.41
2018-07-03T15:36:53.084Z,34.40
2018-07-03T15:39:21.353Z,33.83
2018-07-03T15:41:49.604Z,33.26
2018-07-03T15:44:29.292Z,32.85
2018-07-03T15:46:57.724Z,32.56
2018-07-03T15:49:26.012Z,32.41
2018-07-03T15:51:54.302Z,32.25
2018-07-03T15:54:22.668Z,33.03
2018-07-03T15:56:50.966Z,35.42
2018-07-03T15:59:19.333Z,38.23
2018-07-03T16:01:48.014Z,36.96
2018-07-03T16:05:29.769Z,35.57
2018-07-03T16:09:15.252Z,34.36
2018-07-03T16:11:43.577Z,33.58
2018-07-03T16:14:12.758Z,34.40
2018-07-03T16:16:41.579Z,34.24
2018-07-03T16:19:15.314Z,33.32
2018-07-03T16:21:43.634Z,33.89
2018-07-03T16:24:11.921Z,34.51
2018-07-03T16:26:40.304Z,34.63
2018-07-03T16:29:10.772Z,33.28
2018-07-03T16:31:39.459Z,32.94
2018-07-03T16:34:08.200Z,31.64
2018-07-03T16:36:36.782Z,31.40
2018-07-03T16:39:08.864Z,30.99
2018-07-03T16:41:37.368Z,30.65
2018-07-03T16:44:05.632Z,30.55
2018-07-03T16:46:33.988Z,30.36
2018-07-03T16:49:02.242Z,30.54
2018-07-03T16:51:30.504Z,30.78
2018-07-03T16:53:58.839Z,30.82
2018-07-03T16:56:27.145Z,30.34
2018-07-03T16:58:55.391Z,30.06
2018-07-03T17:01:23.762Z,29.65
2018-07-03T17:03:52.110Z,29.55
2018-07-03T17:06:20.851Z,29.20
2018-07-03T17:08:49.301Z,29.18
2018-07-03T17:11:17.566Z,29.26
2018-07-03T17:13:45.985Z,29.24
2018-07-03T17:16:14.219Z,29.23
2018-07-03T17:18:47.813Z,29.30
2018-07-03T17:21:16.113Z,29.31
2018-07-03T17:23:44.512Z,29.12
2018-07-03T17:26:12.848Z,29.12
2018-07-03T17:28:41.120Z,29.07
2018-07-03T17:31:09.425Z,29.08
2018-07-03T17:33:37.744Z,29.03
2018-07-03T17:36:06.729Z,28.86
2018-07-03T17:38:35.060Z,28.61
2018-07-03T17:41:14.649Z,28.75
2018-07-03T17:44:06.068Z,28.64
2018-07-03T17:46:34.404Z,28.35
2018-07-03T17:49:02.860Z,28.32
2018-07-03T17:51:31.399Z,28.27
2018-07-03T17:53:59.779Z,28.19
2018-07-03T17:56:28.717Z,28.24
2018-07-03T17:58:56.963Z,28.16
2018-07-03T18:01:25.229Z,28.11
2018-07-03T18:03:59.200Z,27.96
2018-07-03T18:06:27.967Z,27.78
2018-07-03T18:08:56.954Z,27.83
2018-07-03T18:11:25.259Z,27.82
2018-07-03T18:13:53.793Z,27.81
2018-07-03T18:16:22.062Z,27.72
2018-07-03T18:19:55.324Z,27.65
2018-07-03T18:22:23.677Z,27.50
2018-07-03T18:24:51.953Z,27.48
2018-07-03T18:27:20.503Z,27.42
2018-07-03T18:29:48.837Z,27.33
2018-07-03T18:32:17.265Z,27.32
2018-07-03T18:34:45.601Z,27.25
2018-07-03T18:37:13.828Z,27.19
2018-07-03T18:39:42.120Z,27.12
2018-07-03T18:42:10.452Z,27.00
2018-07-03T18:44:39.076Z,26.87
2018-07-03T18:47:07.436Z,26.73
2018-07-03T18:49:35.752Z,26.58
2018-07-03T18:52:04.012Z,26.46
2018-07-03T18:54:32.301Z,26.32
2018-07-03T18:57:00.678Z,26.23
2018-07-03T18:59:29.558Z,26.19
2018-07-03T19:01:57.859Z,25.98
2018-07-03T19:04:26.232Z,25.83
2018-07-03T19:06:55.512Z,25.63
2018-07-03T19:09:23.897Z,25.45
2018-07-03T19:11:52.450Z,25.32
2018-07-03T19:14:20.702Z,25.00
2018-07-03T19:16:49.022Z,24.73
2018-07-03T19:19:17.625Z,24.62
2018-07-03T19:21:46.037Z,24.46
2018-07-03T19:24:14.918Z,24.33
2018-07-03T19:26:44.317Z,24.24
2018-07-03T19:29:12.653Z,24.10
2018-07-03T19:31:40.913Z,24.01
2018-07-03T19:34:09.424Z,23.90
2018-07-03T19:36:37.687Z,23.77
2018-07-03T19:39:09.049Z,23.69
2018-07-03T19:41:37.520Z,23.59
2018-07-03T19:44:06.745Z,23.49
2018-07-03T19:46:35.011Z,23.46
2018-07-03T19:49:03.968Z,23.44
2018-07-03T19:51:32.265Z,23.35
2018-07-03T19:54:00.753Z,23.14
2018-07-03T19:56:29.185Z,23.04
2018-07-03T19:58:57.736Z,22.93
2018-07-03T20:01:26.098Z,22.85
2018-07-03T20:03:54.901Z,22.74
2018-07-03T20:06:23.180Z,22.74
2018-07-03T20:08:51.960Z,22.73
2018-07-03T20:11:20.320Z,22.69
2018-07-03T20:13:48.592Z,22.67
2018-07-03T20:16:17.586Z,22.58
2018-07-03T20:18:45.891Z,22.49
2018-07-03T20:21:14.151Z,22.39
2018-07-03T20:23:42.428Z,22.31
2018-07-03T20:26:11.048Z,22.22
2018-07-03T20:28:39.390Z,22.16
2018-07-03T20:31:08.116Z,22.14
2018-07-03T20:33:36.548Z,22.16
2018-07-03T20:36:04.936Z,22.05
2018-07-03T20:38:33.313Z,21.92
2018-07-03T20:41:03.062Z,21.80
2018-07-03T20:43:32.825Z,21.63
2018-07-03T20:46:01.227Z,21.52
2018-07-03T20:48:29.829Z,21.42
2018-07-03T20:50:58.622Z,21.41
2018-07-03T20:53:26.976Z,21.38
2018-07-03T20:55:55.418Z,21.32
2018-07-03T20:58:24.001Z,21.28
2018-07-03T21:00:52.300Z,21.49
2018-07-03T21:03:20.557Z,21.56
2018-07-03T21:05:49.179Z,21.44
2018-07-03T21:08:17.366Z,21.33
2018-07-03T21:10:45.716Z,21.22
2018-07-03T21:13:13.983Z,21.16
2018-07-03T21:15:42.357Z,21.10
2018-07-03T21:18:10.736Z,21.09
2018-07-03T21:20:39.118Z,21.07
2018-07-03T21:23:07.508Z,20.99
2018-07-03T21:25:35.893Z,20.97
2018-07-03T21:28:04.159Z,20.91
2018-07-03T21:30:32.592Z,20.93
2018-07-03T21:33:00.757Z,20.88
2018-07-03T21:35:29.072Z,20.72
2018-07-03T21:37:57.423Z,20.65
2018-07-03T21:40:25.737Z,20.60
2018-07-03T21:42:54.016Z,20.55
2018-07-03T21:45:22.293Z,20.52
2018-07-03T21:47:50.683Z,20.42
2018-07-03T21:50:19.041Z,20.33
2018-07-03T21:52:47.329Z,20.24
2018-07-03T21:55:15.705Z,20.19
2018-07-03T21:57:44.151Z,20.15
2018-07-03T22:00:12.465Z,20.07
2018-07-03T22:02:42.165Z,20.04
2018-07-03T22:05:11.179Z,19.99
2018-07-03T22:07:39.765Z,19.96
2018-07-03T22:10:08.117Z,19.97
2018-07-03T22:12:36.821Z,19.95
2018-07-03T22:15:05.895Z,19.99
2018-07-03T22:17:34.995Z,19.93
2018-07-03T22:20:04.293Z,19.77
2018-07-03T22:22:33.268Z,19.68
2018-07-03T22:25:02.419Z,19.63
2018-07-03T22:27:31.553Z,19.55
2018-07-03T22:30:00.217Z,19.48
2018-07-03T22:32:30.354Z,19.39
2018-07-03T22:34:59.521Z,19.41
2018-07-03T22:37:29.973Z,19.40
2018-07-03T22:39:59.517Z,19.38
2018-07-03T22:42:28.754Z,19.35
2018-07-03T22:44:57.822Z,19.31
2018-07-03T22:47:27.182Z,19.35
2018-07-03T22:49:55.442Z,19.37
2018-07-03T22:52:23.716Z,19.42
2018-07-03T22:54:52.234Z,19.36
2018-07-03T22:57:20.989Z,19.26
2018-07-03T22:59:49.317Z,19.20
2018-07-03T23:02:18.326Z,19.18
2018-07-03T23:04:46.677Z,19.09
2018-07-03T23:07:15.473Z,19.19
2018-07-03T23:09:43.713Z,19.18
2018-07-03T23:12:16.161Z,19.12
2018-07-03T23:14:44.489Z,19.04
2018-07-03T23:17:12.769Z,18.97
2018-07-03T23:19:41.035Z,18.92
2018-07-03T23:22:09.286Z,18.84
2018-07-03T23:24:37.695Z,18.85
2018-07-03T23:27:06.005Z,18.90
2018-07-03T23:29:34.441Z,18.84
2018-07-03T23:32:02.761Z,18.88
2018-07-03T23:34:31.128Z,18.86
2018-07-03T23:36:59.380Z,18.91
2018-07-03T23:39:27.670Z,18.82
2018-07-03T23:41:56.159Z,18.81
2018-07-03T23:44:24.402Z,18.79
2018-07-03T23:47:03.876Z,18.77
2018-07-03T23:49:43.516Z,18.83
2018-07-03T23:52:23.142Z,18.95
2018-07-03T23:55:02.727Z,18.95
2018-07-03T23:57:42.381Z,18.88
